Ashland, Montana
Current Conditions -  °F | °C
As of 5:53 PM on Saturday 25 Oct 2014 (Local Time) from KMLS Reporting Station
Clear Clear  
Wind Chill: 68°   Ceiling: Unl
Heat Index: 68°   Visibility: 10mi
Dew Point: 35°   Wind: 15mph
Humidity: 30%   Direction: 120°ESE
Pressure: 29.76"   Gusts: NA
Location:  45.62°N, 106.31°W
Report Text: KMLS 252353Z AUTO 12013KT 10SM CLR 20/02 A2976 RMK AO2 SLP074 T02000017 10222 20167 58035
Loading
Personal Weather Stations






























Interactive Weather Map
Tropical Storm Tracking
New forecast layout! Learn more

10-Day Weather Forecast

Advertisements
Track Severe Weather on mobile